Waterville, ME (04903)

9:57 PM EST on March 04, 2015 (GMT -0500)
Mayflower Hill | Change Station
CLOSE
Current Station
Personal Weather Station
Location: Waterville, ME
Elevation: 292 ft
Nearby Weather Stations

Elev 292 ft 44.56 °N, 69.66 °W | Updated 4 minutes ago

Clear
Clear
37.7 °F
Feels Like 38 °F
N
0.0
Wind Variable Wind from NW
Gusts 1.8 mph

Today
High -- | Low -- °F
--% Chance of Precip.
Yesterday
High -- | Low -- °F
Precip. -- in
6:11 AM 5:30 PM
Full, 100% visible
Pressure 29.68 in
Visibility 10.0 miles
Clouds Clear
Windchill 38 °F
Dew Point 24 °F
Humidity 56%
Rainfall -999.00 in
Snow Depth Not available.
UV 0 out of 12
Pollen .30 out of 12
Air Quality Not available.
Flu Activity Not available.
METAR KWVL 050215Z 00000KT 10SM CLR 02/M06 A2968 RMK AO1

More Conditions Fewer Conditions

Pressure 29.68 in
Visibility 10.0 miles
Clouds Clear
Windchill 38 °F
Dew Point 24 °F
Humidity 56%
Rainfall -999.00 in
Snow Depth Not available.
UV 0 out of 12
Pollen .30 out of 12
Air Quality Not available.
Flu Activity Not available.
METAR KWVL 050215Z 00000KT 10SM CLR 02/M06 A2968 RMK AO1

More Conditions Fewer Conditions

10-Day Weather Forecast

Almanac

Astronomy

Mar. 04, 2015 Rise Set
Actual Time
Civil Twilight
Nautical Twilight
Astronomical Twilight
Moon
Length of Visible Light
Length of Day
Tomorrow will be .
, % of the Moon is Illuminated

Today's Extremes

State Highs State Lows

Community

WunderPhotos

Upload Photos

1,802,634 photos uploaded!

WunderBlogs® & News

Nearby

Air Quality

  Air Quality AQ Index Pollutant
Not available.

Snow Depth

Station Depth Elevation

Earthquake Activity

City Distance Mag. Time & Date
Minimum magnitude displayed is 2.5.

Coastal Water Temperatures

Place Temperature

Nearby Weather Stations